createdAt,value
2018-04-13T00:01:46.205Z,10.40
2018-04-13T00:04:13.654Z,10.40
2018-04-13T00:06:41.089Z,10.40
2018-04-13T00:09:08.580Z,10.40
2018-04-13T00:11:36.033Z,10.50
2018-04-13T00:14:03.477Z,10.50
2018-04-13T00:16:31.033Z,10.40
2018-04-13T00:18:58.468Z,10.40
2018-04-13T00:21:25.924Z,10.50
2018-04-13T00:23:53.369Z,10.50
2018-04-13T00:26:21.576Z,10.50
2018-04-13T00:28:49.060Z,10.50
2018-04-13T00:31:16.612Z,10.50
2018-04-13T00:33:44.069Z,10.50
2018-04-13T00:36:11.506Z,10.50
2018-04-13T00:38:38.948Z,10.60
2018-04-13T00:41:06.441Z,10.60
2018-04-13T00:43:33.913Z,10.60
2018-04-13T00:46:01.352Z,10.60
2018-04-13T00:48:28.781Z,10.70
2018-04-13T00:50:56.224Z,10.80
2018-04-13T00:53:29.455Z,10.80
2018-04-13T00:55:56.897Z,10.70
2018-04-13T00:58:24.344Z,10.70
2018-04-13T01:00:51.800Z,10.70
2018-04-13T01:03:19.240Z,10.80
2018-04-13T01:05:46.694Z,10.80
2018-04-13T01:08:14.137Z,10.90
2018-04-13T01:10:42.348Z,10.90
2018-04-13T01:13:09.792Z,10.90
2018-04-13T01:15:37.273Z,11.00
2018-04-13T01:18:04.722Z,11.00
2018-04-13T01:20:32.269Z,11.10
2018-04-13T01:22:59.748Z,11.10
2018-04-13T01:25:27.198Z,11.20
2018-04-13T01:27:54.636Z,11.20
2018-04-13T01:30:22.093Z,11.20
2018-04-13T01:32:49.550Z,11.20
2018-04-13T01:35:17.928Z,11.30
2018-04-13T01:37:45.404Z,11.40
2018-04-13T01:40:12.861Z,11.50
2018-04-13T01:42:40.328Z,11.70
2018-04-13T01:45:07.776Z,11.70
2018-04-13T01:47:35.229Z,11.50
2018-04-13T01:50:02.770Z,11.40
2018-04-13T01:52:30.196Z,11.30
2018-04-13T01:54:57.633Z,11.20
2018-04-13T01:57:25.266Z,11.20
2018-04-13T01:59:52.731Z,11.20
2018-04-13T02:02:20.286Z,11.10
2018-04-13T02:04:47.813Z,11.10
2018-04-13T02:07:15.268Z,11.20
2018-04-13T02:09:42.726Z,11.20
2018-04-13T02:12:10.187Z,11.00
2018-04-13T02:14:37.670Z,10.90
2018-04-13T02:17:05.117Z,10.60
2018-04-13T02:19:32.556Z,10.60
2018-04-13T02:22:00.032Z,10.60
2018-04-13T02:24:27.489Z,10.60
2018-04-13T02:26:54.942Z,10.60
2018-04-13T02:29:22.416Z,10.60
2018-04-13T02:31:50.350Z,10.60
2018-04-13T02:34:17.869Z,10.60
2018-04-13T02:36:45.304Z,10.60
2018-04-13T02:39:12.767Z,10.50
2018-04-13T02:41:40.204Z,10.60
2018-04-13T02:44:07.748Z,10.50
2018-04-13T02:46:35.315Z,10.50
2018-04-13T02:49:02.774Z,10.70
2018-04-13T02:51:30.438Z,10.50
2018-04-13T02:53:57.905Z,10.40
2018-04-13T02:56:25.455Z,10.50
2018-04-13T02:58:53.085Z,10.60
2018-04-13T03:01:20.509Z,10.60
2018-04-13T03:03:48.717Z,10.80
2018-04-13T03:06:16.156Z,10.80
2018-04-13T03:08:43.608Z,10.80
2018-04-13T03:11:11.044Z,10.80
2018-04-13T03:13:39.249Z,10.80
2018-04-13T03:16:06.694Z,10.70
2018-04-13T03:18:34.141Z,10.70
2018-04-13T03:21:02.361Z,10.60
2018-04-13T03:23:29.808Z,10.60
2018-04-13T03:25:57.237Z,10.70
2018-04-13T03:28:24.697Z,10.60
2018-04-13T03:30:52.137Z,10.50
2018-04-13T03:33:20.444Z,10.60
2018-04-13T03:35:47.861Z,10.60
2018-04-13T03:38:16.077Z,10.50
2018-04-13T03:40:43.568Z,10.40
2018-04-13T03:43:11.000Z,10.40
2018-04-13T03:45:38.438Z,10.30
2018-04-13T03:48:05.888Z,10.30
2018-04-13T03:50:33.340Z,10.30
2018-04-13T03:53:00.789Z,10.20
2018-04-13T03:55:28.224Z,10.30
2018-04-13T03:57:55.660Z,10.30
2018-04-13T04:00:23.095Z,10.20
2018-04-13T04:02:50.545Z,10.00
2018-04-13T04:05:17.980Z,10.00
2018-04-13T04:07:45.553Z,10.10
2018-04-13T04:10:12.984Z,10.00
2018-04-13T04:12:40.432Z,10.00
2018-04-13T04:15:08.676Z,10.00
2018-04-13T04:17:36.301Z,9.90
2018-04-13T04:20:15.868Z,9.90
2018-04-13T04:22:55.065Z,10.00
2018-04-13T04:25:34.525Z,10.00
2018-04-13T04:28:01.961Z,9.90
2018-04-13T04:30:29.390Z,9.90
2018-04-13T04:32:57.592Z,10.00
2018-04-13T04:35:25.017Z,9.90
2018-04-13T04:37:53.222Z,9.90
2018-04-13T04:40:20.668Z,9.90
2018-04-13T04:42:48.116Z,9.90
2018-04-13T04:45:15.544Z,10.00
2018-04-13T04:47:43.765Z,10.00
2018-04-13T04:50:11.209Z,10.00
2018-04-13T04:52:38.656Z,9.90
2018-04-13T04:55:06.104Z,10.00
2018-04-13T04:57:34.312Z,10.10
2018-04-13T05:00:01.769Z,10.00
2018-04-13T05:02:29.205Z,10.10
2018-04-13T05:04:56.661Z,10.10
2018-04-13T05:07:24.107Z,10.10
2018-04-13T05:09:52.313Z,10.10
2018-04-13T05:12:19.765Z,10.10
2018-04-13T05:14:47.211Z,10.20
2018-04-13T05:17:14.663Z,10.30
2018-04-13T05:19:42.105Z,10.30
2018-04-13T05:22:10.410Z,10.20
2018-04-13T05:24:37.864Z,10.20
2018-04-13T05:27:05.318Z,10.20
2018-04-13T05:29:32.758Z,10.10
2018-04-13T05:32:00.204Z,10.10
2018-04-13T05:34:28.432Z,10.10
2018-04-13T05:36:55.969Z,10.10
2018-04-13T05:39:23.454Z,10.20
2018-04-13T05:41:50.907Z,10.40
2018-04-13T05:44:18.439Z,10.40
2018-04-13T05:46:45.932Z,10.50
2018-04-13T05:49:13.562Z,10.60
2018-04-13T05:51:41.012Z,10.70
2018-04-13T05:54:08.449Z,10.70
2018-04-13T05:56:35.905Z,10.90
2018-04-13T05:59:03.420Z,10.90
2018-04-13T06:01:31.116Z,10.90
2018-04-13T06:03:59.320Z,11.00
2018-04-13T06:06:26.785Z,10.90
2018-04-13T06:08:54.274Z,11.00
2018-04-13T06:11:21.717Z,11.10
2018-04-13T06:13:49.273Z,11.20
2018-04-13T06:16:16.744Z,11.30
2018-04-13T06:18:44.289Z,11.40
2018-04-13T06:21:11.730Z,11.60
2018-04-13T06:23:39.201Z,11.70
2018-04-13T06:26:06.664Z,11.70
2018-04-13T06:28:34.105Z,11.70
2018-04-13T06:31:01.645Z,11.80
2018-04-13T06:33:29.086Z,11.80
2018-04-13T06:35:56.557Z,11.90
2018-04-13T06:38:24.015Z,11.90
2018-04-13T06:40:51.498Z,11.90
2018-04-13T06:43:18.984Z,11.90
2018-04-13T06:45:47.306Z,12.20
2018-04-13T06:48:14.762Z,12.10
2018-04-13T06:50:42.204Z,12.30
2018-04-13T06:53:09.651Z,12.40
2018-04-13T06:55:37.239Z,12.30
2018-04-13T06:58:04.730Z,12.40
2018-04-13T07:00:32.248Z,12.50
2018-04-13T07:02:59.732Z,12.50
2018-04-13T07:05:27.180Z,12.50
2018-04-13T07:07:54.634Z,12.60
2018-04-13T07:10:22.075Z,12.60
2018-04-13T07:12:49.549Z,12.70
2018-04-13T07:15:16.998Z,12.80
2018-04-13T07:17:44.545Z,12.80
2018-04-13T07:20:11.994Z,12.90
2018-04-13T07:22:39.430Z,13.00
2018-04-13T07:25:07.642Z,13.20
2018-04-13T07:27:35.191Z,13.20
2018-04-13T07:30:02.633Z,13.30
2018-04-13T07:32:30.833Z,13.60
2018-04-13T07:34:58.277Z,13.50
2018-04-13T07:37:25.730Z,13.60
2018-04-13T07:39:53.213Z,13.60
2018-04-13T07:42:20.746Z,13.60
2018-04-13T07:44:48.203Z,13.70
2018-04-13T07:47:15.762Z,13.90
2018-04-13T07:49:43.216Z,14.00
2018-04-13T07:52:10.638Z,14.00
2018-04-13T07:54:38.864Z,14.30
2018-04-13T07:57:06.333Z,14.20
2018-04-13T07:59:33.776Z,14.40
2018-04-13T08:02:01.220Z,14.40
2018-04-13T08:04:28.776Z,14.60
2018-04-13T08:06:56.238Z,14.60
2018-04-13T08:09:23.720Z,14.70
2018-04-13T08:11:51.273Z,14.80
2018-04-13T08:14:18.730Z,14.80
2018-04-13T08:16:46.176Z,14.90
2018-04-13T08:19:13.717Z,15.00
2018-04-13T08:21:41.171Z,15.10
2018-04-13T08:24:08.628Z,15.20
2018-04-13T08:26:36.191Z,15.30
2018-04-13T08:29:03.748Z,15.50
2018-04-13T08:31:31.192Z,15.80
2018-04-13T08:33:58.729Z,16.00
2018-04-13T08:36:26.964Z,16.30
2018-04-13T08:38:54.498Z,16.30
2018-04-13T08:41:21.924Z,16.40
2018-04-13T08:43:50.132Z,16.40
2018-04-13T08:46:17.682Z,16.30
2018-04-13T08:48:45.311Z,16.50
2018-04-13T08:51:12.835Z,16.60
2018-04-13T08:53:40.261Z,16.80
2018-04-13T08:56:07.814Z,16.80
2018-04-13T08:58:35.253Z,16.90
2018-04-13T09:01:02.788Z,17.00
2018-04-13T09:03:30.286Z,17.00
2018-04-13T09:05:57.716Z,17.10
2018-04-13T09:08:25.198Z,17.20
2018-04-13T09:10:52.648Z,17.50
2018-04-13T09:13:20.110Z,17.60
2018-04-13T09:15:47.594Z,17.80
2018-04-13T09:18:15.044Z,17.90
2018-04-13T09:20:42.623Z,18.00
2018-04-13T09:23:10.010Z,18.00
2018-04-13T09:25:38.317Z,18.20
2018-04-13T09:28:05.741Z,18.10
2018-04-13T09:30:33.945Z,18.50
2018-04-13T09:33:01.420Z,18.40
2018-04-13T09:35:28.992Z,18.60
2018-04-13T09:37:57.952Z,18.70
2018-04-13T09:40:25.393Z,18.70
2018-04-13T09:42:52.970Z,18.80
2018-04-13T09:45:20.406Z,18.60
2018-04-13T09:47:47.983Z,18.60
2018-04-13T09:50:15.417Z,18.70
2018-04-13T09:52:42.865Z,18.70
2018-04-13T09:55:11.068Z,19.00
2018-04-13T09:57:38.543Z,19.00
2018-04-13T10:00:05.985Z,19.20
2018-04-13T10:02:38.363Z,19.10
2018-04-13T10:05:11.564Z,19.10
2018-04-13T10:07:38.997Z,19.10
2018-04-13T10:10:06.442Z,19.20
2018-04-13T10:12:33.901Z,19.40
2018-04-13T10:15:01.357Z,19.40
2018-04-13T10:17:28.930Z,19.30
2018-04-13T10:19:56.396Z,19.20
2018-04-13T10:22:23.842Z,19.10
2018-04-13T10:24:52.100Z,19.00
2018-04-13T10:27:19.536Z,19.10
2018-04-13T10:29:47.740Z,19.00
2018-04-13T10:32:15.186Z,19.00
2018-04-13T10:34:42.753Z,19.10
2018-04-13T10:37:10.245Z,19.00
2018-04-13T10:39:37.688Z,19.00
2018-04-13T10:42:05.232Z,18.90
2018-04-13T10:44:32.861Z,18.80
2018-04-13T10:47:01.170Z,18.90
2018-04-13T10:49:28.842Z,18.80
2018-04-13T10:51:56.441Z,16.30
2018-04-13T10:54:24.766Z,18.80
2018-04-13T10:56:52.739Z,18.70
2018-04-13T10:59:20.245Z,18.70
2018-04-13T11:01:47.749Z,18.60
2018-04-13T11:04:15.343Z,18.60
2018-04-13T11:06:42.789Z,18.60
2018-04-13T11:09:10.324Z,18.50
2018-04-13T11:11:37.883Z,18.50
2018-04-13T11:14:05.341Z,18.40
2018-04-13T11:16:32.977Z,18.20
2018-04-13T11:19:00.416Z,18.20
2018-04-13T11:21:28.644Z,18.10
2018-04-13T11:23:56.086Z,18.10
2018-04-13T11:26:23.534Z,18.10
2018-04-13T11:28:51.103Z,17.80
2018-04-13T11:31:18.658Z,17.80
2018-04-13T11:33:46.140Z,17.70
2018-04-13T11:36:13.673Z,17.80
2018-04-13T11:38:41.174Z,17.90
2018-04-13T11:41:08.629Z,18.00
2018-04-13T11:43:36.151Z,18.00
2018-04-13T11:46:03.604Z,18.00
2018-04-13T11:48:31.099Z,18.00
2018-04-13T11:50:58.541Z,18.10
2018-04-13T11:53:25.990Z,18.10
2018-04-13T11:55:53.443Z,18.00
2018-04-13T11:58:20.898Z,17.90
2018-04-13T12:00:48.344Z,17.90
2018-04-13T12:03:15.820Z,17.80
2018-04-13T12:05:43.292Z,17.70
2018-04-13T12:08:10.727Z,17.90
2018-04-13T12:10:38.212Z,18.10
2018-04-13T12:13:05.652Z,18.10
2018-04-13T12:15:33.082Z,18.20
2018-04-13T12:18:00.536Z,18.20
2018-04-13T12:20:27.985Z,18.00
2018-04-13T12:22:55.429Z,17.80
2018-04-13T12:25:22.877Z,17.60
2018-04-13T12:27:51.113Z,17.60
2018-04-13T12:30:18.740Z,17.60
2018-04-13T12:32:47.118Z,17.60
2018-04-13T12:35:14.632Z,17.40
2018-04-13T12:37:42.881Z,17.30
2018-04-13T12:40:10.410Z,17.20
2018-04-13T12:42:37.849Z,17.00
2018-04-13T12:45:05.289Z,17.70
2018-04-13T12:47:33.497Z,16.80
2018-04-13T12:50:01.017Z,16.70
2018-04-13T12:52:29.233Z,16.70
2018-04-13T12:54:56.829Z,16.60
2018-04-13T12:57:24.243Z,16.50
2018-04-13T12:59:51.717Z,16.40
2018-04-13T13:02:19.184Z,16.40
2018-04-13T13:04:46.712Z,16.50
2018-04-13T13:07:14.274Z,16.40
2018-04-13T13:09:41.721Z,16.30
2018-04-13T13:12:09.206Z,16.30
2018-04-13T13:14:36.649Z,16.30
2018-04-13T13:17:04.311Z,16.30
2018-04-13T13:19:31.733Z,16.30
2018-04-13T13:21:59.189Z,16.40
2018-04-13T13:24:26.667Z,16.30
2018-04-13T13:26:54.231Z,16.40
2018-04-13T13:29:21.703Z,16.40
2018-04-13T13:31:49.243Z,16.40
2018-04-13T13:34:16.698Z,16.50
2018-04-13T13:36:44.258Z,16.50
2018-04-13T13:39:11.748Z,16.70
2018-04-13T13:41:39.206Z,16.80
2018-04-13T13:44:06.645Z,16.90
2018-04-13T13:46:34.085Z,16.80
2018-04-13T13:49:01.666Z,17.10
2018-04-13T13:51:29.202Z,17.40
2018-04-13T13:53:56.698Z,17.40
2018-04-13T13:56:24.136Z,17.50
2018-04-13T13:58:51.597Z,17.60
2018-04-13T14:01:19.036Z,17.70
2018-04-13T14:03:46.496Z,17.70
2018-04-13T14:06:14.141Z,17.70
2018-04-13T14:08:41.569Z,17.70
2018-04-13T14:11:09.874Z,17.80
2018-04-13T14:13:37.314Z,17.80
2018-04-13T14:16:04.739Z,18.00
2018-04-13T14:18:32.180Z,18.00
2018-04-13T14:20:59.700Z,18.10
2018-04-13T14:23:27.125Z,18.30
2018-04-13T14:25:55.337Z,18.50
2018-04-13T14:28:22.888Z,18.40
2018-04-13T14:30:50.342Z,18.50
2018-04-13T14:33:17.765Z,18.60
2018-04-13T14:35:46.430Z,18.90
2018-04-13T14:38:13.872Z,18.80
2018-04-13T14:40:41.330Z,18.90
2018-04-13T14:43:08.790Z,19.10
2018-04-13T14:45:36.338Z,19.20
2018-04-13T14:48:03.794Z,19.20
2018-04-13T14:50:31.240Z,19.20
2018-04-13T14:52:58.885Z,19.30
2018-04-13T14:55:26.313Z,19.30
2018-04-13T14:57:53.773Z,19.20
2018-04-13T15:00:21.253Z,19.20
2018-04-13T15:02:48.812Z,19.10
2018-04-13T15:05:16.241Z,18.90
2018-04-13T15:07:44.458Z,18.50
2018-04-13T15:10:11.900Z,18.50
2018-04-13T15:12:39.497Z,18.60
2018-04-13T15:15:07.057Z,18.60
2018-04-13T15:17:34.501Z,18.70
2018-04-13T15:20:02.229Z,18.70
2018-04-13T15:22:29.673Z,18.70
2018-04-13T15:24:57.145Z,18.60
2018-04-13T15:27:24.602Z,18.60
2018-04-13T15:29:52.134Z,18.60
2018-04-13T15:32:20.440Z,18.50
2018-04-13T15:34:47.892Z,18.50
2018-04-13T15:37:15.592Z,18.30
2018-04-13T15:39:43.827Z,18.40
2018-04-13T15:42:11.320Z,18.30
2018-04-13T15:44:38.779Z,18.40
2018-04-13T15:47:07.145Z,18.50
2018-04-13T15:49:34.596Z,18.50
2018-04-13T15:52:02.041Z,18.50
2018-04-13T15:54:29.510Z,18.40
2018-04-13T15:56:56.990Z,18.50
2018-04-13T15:59:24.608Z,18.40
2018-04-13T16:01:52.042Z,18.10
2018-04-13T16:04:19.537Z,17.90
2018-04-13T16:06:47.004Z,17.70
2018-04-13T16:09:14.483Z,17.50
2018-04-13T16:11:42.073Z,17.40
2018-04-13T16:14:09.537Z,17.40
2018-04-13T16:16:37.106Z,17.50
2018-04-13T16:19:04.563Z,17.30
2018-04-13T16:21:32.529Z,17.20
2018-04-13T16:24:00.018Z,17.20
2018-04-13T16:26:27.469Z,17.10
2018-04-13T16:28:55.003Z,17.00
2018-04-13T16:31:22.485Z,17.00
2018-04-13T16:33:49.949Z,16.90
2018-04-13T16:36:17.475Z,16.70
2018-04-13T16:38:44.904Z,16.50
2018-04-13T16:41:12.437Z,16.40
2018-04-13T16:43:39.890Z,16.30
2018-04-13T16:46:07.402Z,16.10
2018-04-13T16:48:34.961Z,16.10
2018-04-13T16:51:02.449Z,16.00
2018-04-13T16:53:29.911Z,15.90
2018-04-13T16:55:57.387Z,15.90
2018-04-13T16:58:24.891Z,15.90
2018-04-13T17:00:52.364Z,15.80
2018-04-13T17:03:19.815Z,15.70
2018-04-13T17:05:47.275Z,15.40
2018-04-13T17:08:15.635Z,15.40
2018-04-13T17:10:43.083Z,15.30
2018-04-13T17:13:10.569Z,15.30
2018-04-13T17:15:38.104Z,15.20
2018-04-13T17:18:05.521Z,15.20
2018-04-13T17:20:33.742Z,15.10
2018-04-13T17:23:01.187Z,15.00
2018-04-13T17:25:28.679Z,15.10
2018-04-13T17:27:56.205Z,15.10
2018-04-13T17:30:23.705Z,15.00
2018-04-13T17:32:51.146Z,15.00
2018-04-13T17:35:18.779Z,14.90
2018-04-13T17:37:46.408Z,14.60
2018-04-13T17:40:14.626Z,14.40
2018-04-13T17:42:42.071Z,14.30
2018-04-13T17:45:09.529Z,14.40
2018-04-13T17:47:36.989Z,14.30
2018-04-13T17:50:04.485Z,14.30
2018-04-13T17:52:31.935Z,14.20
2018-04-13T17:54:59.555Z,14.20
2018-04-13T17:57:27.012Z,14.20
2018-04-13T17:59:55.292Z,14.20
2018-04-13T18:02:22.731Z,14.10
2018-04-13T18:04:50.185Z,14.20
2018-04-13T18:07:17.633Z,14.20
2018-04-13T18:09:45.083Z,14.10
2018-04-13T18:12:13.305Z,14.00
2018-04-13T18:14:40.776Z,13.90
2018-04-13T18:17:08.226Z,13.80
2018-04-13T18:19:35.677Z,13.60
2018-04-13T18:22:03.319Z,13.50
2018-04-13T18:24:30.773Z,13.40
2018-04-13T18:26:58.214Z,13.30
2018-04-13T18:29:25.680Z,13.40
2018-04-13T18:31:53.109Z,13.30
2018-04-13T18:34:21.314Z,13.00
2018-04-13T18:36:48.765Z,13.00
2018-04-13T18:39:16.226Z,13.00
2018-04-13T18:41:43.685Z,12.90
2018-04-13T18:44:11.186Z,12.70
2018-04-13T18:46:38.698Z,12.60
2018-04-13T18:49:06.162Z,12.50
2018-04-13T18:51:33.628Z,12.40
2018-04-13T18:54:01.111Z,12.40
2018-04-13T18:56:29.361Z,12.30
2018-04-13T18:58:56.798Z,12.20
2018-04-13T19:01:24.249Z,12.10
2018-04-13T19:03:51.697Z,12.00
2018-04-13T19:06:19.193Z,11.90
2018-04-13T19:08:46.629Z,11.80
2018-04-13T19:11:14.186Z,11.70
2018-04-13T19:13:41.645Z,11.60
2018-04-13T19:16:09.089Z,11.50
2018-04-13T19:18:36.556Z,11.40
2018-04-13T19:21:04.001Z,11.40
2018-04-13T19:23:31.468Z,11.20
2018-04-13T19:25:58.986Z,11.10
2018-04-13T19:28:27.213Z,10.50
2018-04-13T19:30:54.648Z,10.40
2018-04-13T19:33:22.214Z,10.60
2018-04-13T19:35:50.630Z,10.60
2018-04-13T19:38:18.150Z,10.70
2018-04-13T19:40:45.593Z,10.60
2018-04-13T19:43:13.168Z,10.60
2018-04-13T19:45:40.592Z,10.60
2018-04-13T19:48:08.800Z,10.60
2018-04-13T19:50:36.261Z,10.50
2018-04-13T19:53:03.707Z,10.60
2018-04-13T19:55:31.185Z,10.60
2018-04-13T19:57:58.632Z,10.60
2018-04-13T20:00:26.061Z,10.70
2018-04-13T20:02:53.514Z,10.70
2018-04-13T20:05:20.987Z,10.70
2018-04-13T20:07:48.424Z,10.70
2018-04-13T20:10:15.921Z,10.60
2018-04-13T20:12:43.459Z,10.70
2018-04-13T20:15:16.840Z,10.60
2018-04-13T20:17:44.357Z,10.60
2018-04-13T20:20:11.790Z,10.60
2018-04-13T20:22:39.238Z,10.60
2018-04-13T20:25:06.681Z,10.50
2018-04-13T20:27:34.137Z,10.50
2018-04-13T20:30:01.696Z,10.50
2018-04-13T20:32:29.193Z,10.40
2018-04-13T20:34:56.641Z,10.40
2018-04-13T20:37:24.085Z,10.50
2018-04-13T20:39:51.624Z,10.60
2018-04-13T20:42:19.081Z,10.40
2018-04-13T20:44:46.536Z,10.40
2018-04-13T20:47:13.977Z,10.30
2018-04-13T20:49:41.420Z,10.30
2018-04-13T20:52:09.637Z,10.30
2018-04-13T20:54:37.227Z,10.30
2018-04-13T20:57:04.621Z,10.30
2018-04-13T20:59:32.092Z,10.30
2018-04-13T21:01:59.519Z,10.10
2018-04-13T21:04:27.717Z,9.80
2018-04-13T21:06:55.177Z,9.80
2018-04-13T21:09:22.666Z,9.80
2018-04-13T21:11:50.122Z,9.80
2018-04-13T21:14:17.553Z,9.60
2018-04-13T21:16:45.002Z,9.40
2018-04-13T21:19:12.483Z,9.40
2018-04-13T21:21:39.921Z,9.40
2018-04-13T21:24:07.361Z,9.50
2018-04-13T21:26:34.805Z,9.50
2018-04-13T21:29:02.287Z,9.70
2018-04-13T21:31:29.709Z,9.80
2018-04-13T21:33:57.917Z,9.60
2018-04-13T21:36:25.366Z,9.50
2018-04-13T21:38:52.799Z,9.50
2018-04-13T21:41:21.019Z,9.60
2018-04-13T21:43:48.493Z,9.50
2018-04-13T21:46:16.017Z,9.70
2018-04-13T21:48:43.453Z,9.70
2018-04-13T21:51:10.889Z,9.60
2018-04-13T21:53:39.153Z,9.80
2018-04-13T21:56:06.580Z,9.70
2018-04-13T21:58:34.038Z,9.70
2018-04-13T22:01:01.479Z,9.60
2018-04-13T22:03:28.905Z,9.60
2018-04-13T22:05:56.352Z,9.70
2018-04-13T22:08:24.571Z,9.80
2018-04-13T22:10:52.789Z,9.90
2018-04-13T22:13:27.733Z,9.90
2018-04-13T22:15:55.946Z,9.90
2018-04-13T22:18:23.380Z,9.90
2018-04-13T22:20:50.846Z,10.00
2018-04-13T22:23:18.302Z,9.90
2018-04-13T22:25:45.736Z,9.70
2018-04-13T22:28:13.216Z,9.60
2018-04-13T22:30:40.636Z,9.50
2018-04-13T22:33:08.866Z,9.50
2018-04-13T22:35:36.507Z,9.50
2018-04-13T22:38:03.949Z,9.60
2018-04-13T22:40:31.397Z,9.60
2018-04-13T22:42:58.843Z,9.50
2018-04-13T22:45:27.028Z,9.40
2018-04-13T22:47:54.485Z,9.40
2018-04-13T22:50:21.986Z,9.40
2018-04-13T22:52:49.441Z,9.40
2018-04-13T22:55:16.884Z,9.40
2018-04-13T22:57:44.329Z,9.40
2018-04-13T23:00:11.764Z,9.30
2018-04-13T23:02:39.241Z,9.30
2018-04-13T23:05:06.677Z,9.40
2018-04-13T23:07:34.119Z,9.40
2018-04-13T23:10:02.333Z,9.60
2018-04-13T23:12:29.771Z,9.50
2018-04-13T23:14:57.227Z,9.60
2018-04-13T23:17:24.686Z,9.80
2018-04-13T23:19:52.120Z,9.80
2018-04-13T23:22:32.193Z,9.80
2018-04-13T23:24:59.632Z,9.70
2018-04-13T23:27:28.064Z,9.90
2018-04-13T23:29:55.497Z,9.90
2018-04-13T23:32:23.056Z,10.00
2018-04-13T23:34:50.615Z,10.00
2018-04-13T23:37:18.174Z,9.90
2018-04-13T23:39:45.649Z,9.80
2018-04-13T23:42:13.088Z,9.80
2018-04-13T23:44:40.576Z,9.70
2018-04-13T23:47:08.013Z,9.70
2018-04-13T23:49:36.108Z,9.70
2018-04-13T23:52:03.732Z,9.70
2018-04-13T23:54:31.184Z,9.60
2018-04-13T23:56:58.624Z,9.60
2018-04-13T23:59:26.053Z,9.60
